logo
Search for airport 
image banner adimage banner adimage banner ad
image banner ad

SNYG - Naturágua

Located in Fortaleza, Brazil

ICAO - SNYG, IATA -

Data provided by Airmate  

General information

Coordinates: S3°49'31" W38°28'17"
Elevation is 75 feet MSL.
Magnetic variation is -20.683333333° East
View others Airports in Ceará

Operational data

Special qualification required
Current time UTC:
Current local time:
Weather at : SBFZ - Pinto Martins ( 9 km )
METAR: SBFZ 240600Z 14010KT 9999 SCT020 BKN090 27/24 Q1011
TAF: TAF SBFZ 240300Z 2406/2506 17007KT 7000 BKN020 FEW025TCU TN26/2409Z TX30/2416Z TEMPO 2406/2412 4000 SHRA BKN013 FEW027TCU BECMG 2412/2414 11015KT BKN025 PROB40 TEMPO 2414/2420 17007KT 4000 RA BR BKN007 FEW025TCU TEMPO 2500/2506 4500 SHRA BKN010 RMK PHN
View NOTAMs / SUP AIP / TFR affecting this airport [VIEW]
Communications frequencies: [VIEW]

Runways:

Airport contact information

Address: Fortaleza Brazil

Satellite view of SNYG